Time;durP1;ratioP1;P1;durP2;ratioP2;P2;SDS_P1;SDS_P2;PMS_P1;PMS_P2;Temp;Humidity;BMP_temperature;BMP_pressure;BME280_temperature;BME280_humidity;BME280_pressure;Samples;Min_cycle;Max_cycle;Signal;HPM_P1;HPM_P2
2020/12/25 00:01:20;;;;;;;12.52;11.63;;;4.50;79.40;;;;;;4929161;29;20719;-73
2020/12/25 00:03:52;;;;;;;12.20;11.40;;;4.60;79.20;;;;;;4929246;30;20075;-73
2020/12/25 00:06:25;;;;;;;12.45;11.60;;;4.60;79.40;;;;;;4928856;30;20048;-73
2020/12/25 00:08:57;;;;;;;12.90;12.00;;;4.60;79.10;;;;;;4933171;29;20075;-73
2020/12/25 00:11:33;;;;;;;12.52;11.68;;;4.70;79.50;;;;;;4931317;30;20124;-74
2020/12/25 00:14:05;;;;;;;12.50;11.70;;;4.70;79.10;;;;;;4944471;29;20052;-73
2020/12/25 00:16:37;;;;;;;12.68;11.77;;;4.70;78.90;;;;;;4929485;29;20392;-73
2020/12/25 00:19:08;;;;;;;11.55;10.75;;;4.70;78.70;;;;;;4930444;30;20101;-73
2020/12/25 00:21:39;;;;;;;12.35;11.55;;;4.70;78.50;;;;;;4931355;29;20044;-74
2020/12/25 00:24:11;;;;;;;11.43;10.63;;;4.70;78.30;;;;;;4928801;30;20043;-73
2020/12/25 00:26:43;;;;;;;12.23;11.32;;;4.70;78.50;;;;;;4928363;29;20130;-73
2020/12/25 00:29:14;;;;;;;11.98;11.18;;;4.70;78.20;;;;;;4941726;29;20043;-72
2020/12/25 00:31:46;;;;;;;12.40;11.50;;;4.70;78.00;;;;;;4928501;29;20059;-73
2020/12/25 00:34:18;;;;;;;12.52;11.63;;;4.70;79.10;;;;;;4929214;30;20105;-73
2020/12/25 00:36:49;;;;;;;12.07;11.27;;;4.70;78.30;;;;;;4926873;30;20443;-73
2020/12/25 00:39:21;;;;;;;11.73;10.93;;;4.70;78.40;;;;;;4928692;30;20497;-73
2020/12/25 00:41:52;;;;;;;12.30;11.50;;;4.60;78.40;;;;;;4927817;29;20055;-72
2020/12/25 00:44:24;;;;;;;11.80;11.00;;;4.60;78.20;;;;;;4928418;30;20044;-73
2020/12/25 00:46:56;;;;;;;11.82;11.02;;;4.60;78.30;;;;;;4942083;29;20044;-73
2020/12/25 00:49:27;;;;;;;11.98;11.18;;;4.60;78.00;;;;;;4942216;29;20056;-73
2020/12/25 00:51:59;;;;;;;12.07;11.18;;;4.60;77.90;;;;;;4941886;29;20708;-73
2020/12/25 00:54:33;;;;;;;12.05;11.23;;;4.60;78.00;;;;;;4924432;30;20048;-73
2020/12/25 00:57:20;;;;;;;11.25;10.45;;;4.60;78.20;;;;;;4933939;30;20578;-73
2020/12/25 01:00:21;;;;;;;12.20;11.40;;;4.60;77.80;;;;;;4938578;29;20125;-73
2020/12/25 01:02:53;;;;;;;11.95;11.15;;;4.50;77.20;;;;;;4928033;30;20040;-73
2020/12/25 01:05:24;;;;;;;12.25;11.45;;;4.40;77.30;;;;;;4926787;29;20044;-73
2020/12/25 01:07:55;;;;;;;12.02;11.23;;;4.40;77.40;;;;;;4927313;30;20419;-73
2020/12/25 01:10:27;;;;;;;12.35;11.45;;;4.30;77.60;;;;;;4939355;29;20061;-73
2020/12/25 01:12:58;;;;;;;11.55;10.75;;;4.30;78.10;;;;;;4927238;30;20056;-73
2020/12/25 01:15:30;;;;;;;11.80;11.00;;;4.30;78.40;;;;;;4925429;29;20057;-73
2020/12/25 01:18:02;;;;;;;11.95;11.15;;;4.40;77.90;;;;;;4940385;29;20035;-73
2020/12/25 01:20:34;;;;;;;11.93;11.13;;;4.40;77.70;;;;;;4940315;29;20062;-73
2020/12/25 01:23:06;;;;;;;12.20;11.30;;;4.40;77.70;;;;;;4926590;30;20837;-72
2020/12/25 01:25:37;;;;;;;11.65;10.85;;;4.30;77.80;;;;;;4924638;30;20051;-72
2020/12/25 01:28:09;;;;;;;11.50;10.70;;;4.30;78.40;;;;;;4927075;30;20052;-73
2020/12/25 01:30:41;;;;;;;11.88;11.07;;;4.30;77.30;;;;;;4922349;30;20051;-73
2020/12/25 01:33:12;;;;;;;11.57;10.77;;;4.30;77.30;;;;;;4925675;30;20052;-74
2020/12/25 01:35:44;;;;;;;12.23;11.32;;;4.30;78.10;;;;;;4926609;29;20474;-72
2020/12/25 01:38:16;;;;;;;11.55;10.75;;;4.40;77.20;;;;;;4928131;30;20063;-73
2020/12/25 01:40:47;;;;;;;11.75;10.95;;;4.30;76.50;;;;;;4925890;29;20097;-72
2020/12/25 01:43:19;;;;;;;11.70;10.90;;;4.30;75.70;;;;;;4926931;30;20075;-73
2020/12/25 01:45:51;;;;;;;11.07;10.27;;;4.20;74.60;;;;;;4922226;30;20841;-72
2020/12/25 01:48:23;;;;;;;11.10;10.30;;;4.10;74.80;;;;;;4926865;30;20058;-73
2020/12/25 01:50:54;;;;;;;11.40;10.60;;;4.00;74.90;;;;;;4925018;29;20476;-73
2020/12/25 01:53:27;;;;;;;11.43;10.63;;;4.00;74.80;;;;;;4925705;30;20683;-73
2020/12/25 01:56:00;;;;;;;11.93;11.13;;;4.00;75.00;;;;;;4928241;29;20086;-73
2020/12/25 01:58:33;;;;;;;11.55;10.65;;;4.00;75.80;;;;;;4927600;30;20047;-74
2020/12/25 02:01:04;;;;;;;11.98;11.18;;;3.90;75.20;;;;;;4924834;30;20048;-73
2020/12/25 02:03:37;;;;;;;11.80;11.00;;;3.90;75.70;;;;;;4928469;30;20055;-73
2020/12/25 02:06:08;;;;;;;11.57;10.77;;;3.90;75.60;;;;;;4925908;29;20066;-73
2020/12/25 02:08:40;;;;;;;12.07;11.27;;;4.00;75.30;;;;;;4925496;30;20067;-73
2020/12/25 02:11:12;;;;;;;11.88;10.98;;;4.00;75.10;;;;;;4924954;30;20055;-71
2020/12/25 02:13:43;;;;;;;11.38;10.57;;;4.00;75.30;;;;;;4939566;29;20048;-73
2020/12/25 02:16:15;;;;;;;11.98;11.18;;;4.00;75.30;;;;;;4941612;29;20051;-73
2020/12/25 02:18:47;;;;;;;11.18;10.38;;;4.00;75.70;;;;;;4926497;30;20052;-72
2020/12/25 02:21:19;;;;;;;11.85;11.05;;;3.90;75.70;;;;;;4925622;29;20178;-73
2020/12/25 02:23:50;;;;;;;11.98;11.18;;;3.90;75.90;;;;;;4936971;29;20052;-73
2020/12/25 02:26:21;;;;;;;11.82;11.02;;;3.80;75.70;;;;;;4924089;29;20059;-72
2020/12/25 02:28:53;;;;;;;11.45;10.65;;;3.70;75.50;;;;;;4926205;30;20048;-72
2020/12/25 02:31:24;;;;;;;11.63;10.73;;;3.70;75.90;;;;;;4925908;29;20600;-73
2020/12/25 02:33:56;;;;;;;11.63;10.82;;;3.70;75.80;;;;;;4926122;30;20071;-73
2020/12/25 02:36:27;;;;;;;11.77;10.98;;;3.70;75.60;;;;;;4909371;30;20593;-72
2020/12/25 02:38:58;;;;;;;11.30;10.50;;;3.70;75.40;;;;;;4926057;30;20058;-73
2020/12/25 02:41:30;;;;;;;11.82;11.02;;;3.70;75.00;;;;;;4924540;30;20059;-73
2020/12/25 02:44:02;;;;;;;11.02;10.23;;;3.70;75.20;;;;;;4926813;30;20052;-73
2020/12/25 02:46:34;;;;;;;12.00;11.10;;;3.60;75.00;;;;;;4925246;29;20055;-73
2020/12/25 02:49:05;;;;;;;11.55;10.65;;;3.60;74.90;;;;;;4925635;30;20117;-72
2020/12/25 02:51:36;;;;;;;11.40;10.60;;;3.60;75.20;;;;;;4918762;30;20056;-72
2020/12/25 02:54:08;;;;;;;11.40;10.60;;;3.60;75.40;;;;;;4926132;30;20067;-73
2020/12/25 02:56:39;;;;;;;11.80;11.00;;;3.50;75.80;;;;;;4925656;29;20124;-73
2020/12/25 02:59:11;;;;;;;11.52;10.63;;;3.50;75.10;;;;;;4925702;30;20047;-72
2020/12/25 03:01:42;;;;;;;10.75;9.95;;;3.50;75.20;;;;;;4921745;30;20060;-73
2020/12/25 03:04:14;;;;;;;10.38;9.57;;;3.50;75.00;;;;;;4926685;30;20126;-73
2020/12/25 03:06:46;;;;;;;10.77;9.98;;;3.50;75.30;;;;;;4924871;29;20059;-72
2020/12/25 03:09:17;;;;;;;11.35;10.55;;;3.40;75.10;;;;;;4922507;30;20592;-72
2020/12/25 03:11:48;;;;;;;11.38;10.52;;;3.50;75.20;;;;;;4925117;29;20051;-72
2020/12/25 03:14:20;;;;;;;11.48;10.65;;;3.50;75.20;;;;;;4925674;30;20506;-73
2020/12/25 03:16:52;;;;;;;10.85;9.95;;;3.40;75.10;;;;;;4925881;29;20051;-72
2020/12/25 03:19:23;;;;;;;11.43;10.63;;;3.40;75.20;;;;;;4940297;29;20047;-73
2020/12/25 03:21:55;;;;;;;11.40;10.60;;;3.40;75.00;;;;;;4928319;29;20044;-73
2020/12/25 03:24:26;;;;;;;11.35;10.55;;;3.30;75.10;;;;;;4928507;30;20473;-72
2020/12/25 03:26:57;;;;;;;11.10;10.30;;;3.30;75.00;;;;;;4925701;30;20067;-73
2020/12/25 03:29:29;;;;;;;10.60;9.80;;;3.40;74.90;;;;;;4929290;30;20126;-73
2020/12/25 03:32:00;;;;;;;10.68;9.88;;;3.30;75.10;;;;;;4928536;29;20434;-73
2020/12/25 03:34:32;;;;;;;10.30;9.52;;;3.30;75.50;;;;;;4928649;30;20056;-72
2020/12/25 03:37:04;;;;;;;10.95;10.15;;;3.30;75.60;;;;;;4912461;30;20066;-71
2020/12/25 03:39:35;;;;;;;10.98;10.18;;;3.30;75.60;;;;;;4929529;30;20519;-73
2020/12/25 03:42:07;;;;;;;10.57;9.77;;;3.30;75.50;;;;;;4928650;29;20109;-73
2020/12/25 03:44:38;;;;;;;10.98;10.18;;;3.20;75.10;;;;;;4928923;30;20048;-72
2020/12/25 03:47:10;;;;;;;10.93;10.13;;;3.20;75.30;;;;;;4928362;29;20387;-72
2020/12/25 03:49:41;;;;;;;10.10;9.38;;;3.20;75.50;;;;;;4928995;30;20059;-72
2020/12/25 03:52:13;;;;;;;10.68;9.88;;;3.20;75.40;;;;;;4928027;29;20523;-73
2020/12/25 03:54:45;;;;;;;10.55;9.75;;;3.20;75.40;;;;;;4928412;30;20555;-72
2020/12/25 03:57:17;;;;;;;11.05;10.25;;;3.20;75.50;;;;;;4928797;29;20507;-72
2020/12/25 03:59:48;;;;;;;10.60;9.80;;;3.20;75.50;;;;;;4929041;30;20048;-73
2020/12/25 04:02:19;;;;;;;10.88;10.07;;;3.20;75.40;;;;;;4927638;29;20130;-73
2020/12/25 04:04:51;;;;;;;10.45;9.75;;;3.10;75.70;;;;;;4942410;29;20055;-73
2020/12/25 04:07:22;;;;;;;10.65;9.85;;;3.10;75.80;;;;;;4927089;29;20912;-73
2020/12/25 04:09:54;;;;;;;10.40;9.70;;;3.10;75.50;;;;;;4927593;30;20055;-73
2020/12/25 04:12:25;;;;;;;11.02;10.23;;;3.10;75.60;;;;;;4927364;29;20109;-73
2020/12/25 04:14:56;;;;;;;10.32;9.55;;;3.10;75.60;;;;;;4928572;29;20052;-72
2020/12/25 04:17:28;;;;;;;10.45;9.68;;;3.10;75.50;;;;;;4928644;29;20051;-73
2020/12/25 04:19:59;;;;;;;11.27;10.48;;;3.10;75.70;;;;;;4927065;30;20131;-73
2020/12/25 04:22:31;;;;;;;9.88;9.18;;;3.00;75.70;;;;;;4927756;29;20134;-73
2020/12/25 04:25:03;;;;;;;11.30;10.50;;;3.10;75.80;;;;;;4937781;29;20048;-72
2020/12/25 04:27:35;;;;;;;10.48;9.68;;;3.00;75.90;;;;;;4928933;30;20136;-73
2020/12/25 04:30:06;;;;;;;11.35;10.55;;;3.00;75.60;;;;;;4926986;29;20059;-72
2020/12/25 04:32:38;;;;;;;10.93;10.13;;;3.00;75.70;;;;;;4941751;29;20059;-73
2020/12/25 04:35:09;;;;;;;11.05;10.25;;;3.00;75.60;;;;;;4927376;29;20048;-72
2020/12/25 04:37:41;;;;;;;10.80;10.00;;;3.00;75.70;;;;;;4928403;30;20126;-73
2020/12/25 04:40:13;;;;;;;10.65;9.85;;;2.90;75.70;;;;;;4926802;29;20108;-73
2020/12/25 04:42:50;;;;;;;11.05;10.25;;;2.90;76.20;;;;;;4927795;30;20148;-73
2020/12/25 04:45:21;;;;;;;10.63;9.82;;;2.80;76.20;;;;;;4927057;29;20052;-73
2020/12/25 04:47:53;;;;;;;10.73;9.93;;;2.90;76.30;;;;;;4926795;30;20064;-73
2020/12/25 04:50:24;;;;;;;10.95;10.15;;;2.90;76.10;;;;;;4927335;30;20079;-72
2020/12/25 04:52:56;;;;;;;11.93;11.00;;;2.90;76.10;;;;;;4941456;29;20531;-73
2020/12/25 04:55:27;;;;;;;11.20;10.40;;;2.80;76.40;;;;;;4940694;29;20116;-72
2020/12/25 04:57:59;;;;;;;10.98;10.18;;;2.80;76.70;;;;;;4927488;30;20554;-73
2020/12/25 05:00:30;;;;;;;11.10;10.30;;;2.80;76.60;;;;;;4927050;29;20144;-72
2020/12/25 05:03:07;;;;;;;11.57;10.77;;;2.80;76.80;;;;;;4927210;30;20998;-73
2020/12/25 05:05:38;;;;;;;10.90;10.10;;;2.80;76.70;;;;;;4938823;29;20059;-73
2020/12/25 05:08:10;;;;;;;13.57;12.38;;;2.80;77.00;;;;;;4927212;30;20052;-73
2020/12/25 05:10:42;;;;;;;11.55;10.65;;;2.80;76.60;;;;;;4940208;29;20052;-73
2020/12/25 05:13:17;;;;;;;11.00;10.20;;;2.80;76.20;;;;;;4927139;30;20482;-72
2020/12/25 05:15:49;;;;;;;11.38;10.52;;;2.80;75.90;;;;;;4926952;29;20058;-72
2020/12/25 05:18:23;;;;;;;11.15;10.35;;;2.80;76.40;;;;;;4927381;30;20117;-73
2020/12/25 05:20:55;;;;;;;11.30;10.50;;;2.70;76.20;;;;;;4926439;29;20051;-73
2020/12/25 05:23:32;;;;;;;10.80;10.00;;;2.70;76.30;;;;;;4927155;30;20051;-73
2020/12/25 05:26:05;;;;;;;11.27;10.48;;;2.70;76.50;;;;;;4926843;29;20050;-72
2020/12/25 05:28:42;;;;;;;11.27;10.48;;;2.70;76.60;;;;;;4927241;30;20051;-72
2020/12/25 05:31:15;;;;;;;10.77;9.98;;;2.70;76.60;;;;;;4926955;29;20415;-72
2020/12/25 05:33:49;;;;;;;11.63;10.82;;;2.70;76.10;;;;;;4927358;30;20051;-73
2020/12/25 05:36:27;;;;;;;11.60;10.80;;;2.60;75.30;;;;;;4927228;29;20475;-73
2020/12/25 05:39:03;;;;;;;11.27;10.48;;;2.60;75.60;;;;;;4925629;30;20370;-73
2020/12/25 05:41:35;;;;;;;11.52;10.73;;;2.60;75.80;;;;;;4939504;29;20443;-72
2020/12/25 05:44:10;;;;;;;10.93;10.13;;;2.60;75.60;;;;;;4927135;30;20044;-73
2020/12/25 05:46:42;;;;;;;12.10;11.20;;;2.60;75.50;;;;;;4925914;29;20470;-73
2020/12/25 05:49:13;;;;;;;11.85;10.95;;;2.60;75.70;;;;;;4939197;29;20440;-73
2020/12/25 05:51:49;;;;;;;10.95;10.05;;;2.60;75.70;;;;;;4940891;29;20424;-74
2020/12/25 05:54:23;;;;;;;10.82;10.02;;;2.60;75.30;;;;;;4925480;30;20067;-73
2020/12/25 05:56:57;;;;;;;11.02;10.23;;;2.60;75.30;;;;;;4927051;29;20060;-73
2020/12/25 05:59:32;;;;;;;11.00;10.20;;;2.60;75.10;;;;;;4927077;30;20056;-73
2020/12/25 06:02:05;;;;;;;11.32;10.52;;;2.60;75.10;;;;;;4925878;29;20056;-73
2020/12/25 06:04:36;;;;;;;11.38;10.57;;;2.60;74.60;;;;;;4929395;30;20067;-73
2020/12/25 06:07:10;;;;;;;12.10;11.20;;;2.60;74.90;;;;;;4925826;29;20480;-74
2020/12/25 06:09:44;;;;;;;11.80;11.00;;;2.60;74.80;;;;;;4924783;30;20198;-73
2020/12/25 06:12:16;;;;;;;11.60;10.80;;;2.60;74.60;;;;;;4925475;29;20040;-73
2020/12/25 06:14:53;;;;;;;11.45;10.65;;;2.60;75.00;;;;;;4925431;30;20714;-73
2020/12/25 06:17:27;;;;;;;11.15;10.35;;;2.60;74.90;;;;;;4921734;30;20055;-73
2020/12/25 06:20:02;;;;;;;11.10;10.30;;;2.60;74.90;;;;;;4926142;30;20052;-73
2020/12/25 06:22:38;;;;;;;11.25;10.45;;;2.50;74.30;;;;;;4926154;29;20044;-74
2020/12/25 06:25:13;;;;;;;11.57;10.77;;;2.50;74.40;;;;;;4909898;29;20048;-73
2020/12/25 06:27:57;;;;;;;11.65;10.85;;;2.50;74.80;;;;;;4938641;29;20064;-73
2020/12/25 06:30:30;;;;;;;11.43;10.63;;;2.50;75.00;;;;;;4925567;29;20120;-73
2020/12/25 06:33:01;;;;;;;12.13;11.23;;;2.50;74.80;;;;;;4918598;30;20052;-74
2020/12/25 06:35:40;;;;;;;12.35;11.35;;;2.50;75.30;;;;;;4938422;29;20071;-73
2020/12/25 06:38:18;;;;;;;12.73;11.73;;;2.40;75.40;;;;;;4926191;30;20044;-73
2020/12/25 06:40:49;;;;;;;12.40;11.50;;;2.50;74.80;;;;;;4925966;29;20044;-74
2020/12/25 06:43:21;;;;;;;12.35;11.45;;;2.50;74.70;;;;;;4926386;30;20060;-73
2020/12/25 06:46:02;;;;;;;12.10;11.20;;;2.40;75.00;;;;;;4925759;29;20375;-74
2020/12/25 06:48:34;;;;;;;12.50;11.60;;;2.40;75.30;;;;;;4925381;30;20497;-73
2020/12/25 06:51:10;;;;;;;12.23;11.23;;;2.40;75.40;;;;;;4925926;29;20102;-73
2020/12/25 06:53:43;;;;;;;12.13;11.23;;;2.40;75.40;;;;;;4927741;30;20078;-73
2020/12/25 06:56:18;;;;;;;12.35;11.45;;;2.40;75.30;;;;;;4929418;29;20479;-73
2020/12/25 06:58:56;;;;;;;13.07;12.00;;;2.40;75.20;;;;;;4928644;30;20051;-73
2020/12/25 07:01:44;;;;;;;12.88;11.88;;;2.40;75.40;;;;;;4929399;29;20056;-73
2020/12/25 07:04:30;;;;;;;12.32;11.43;;;2.40;75.50;;;;;;4930413;29;20051;-72
2020/12/25 07:07:07;;;;;;;12.85;11.88;;;2.40;75.60;;;;;;4930425;29;20048;-72
2020/12/25 07:09:44;;;;;;;12.30;11.40;;;2.30;75.70;;;;;;4928831;30;20124;-72
2020/12/25 07:12:20;;;;;;;12.10;11.20;;;2.30;75.70;;;;;;4942502;29;20060;-72
2020/12/25 07:14:52;;;;;;;12.10;11.20;;;2.30;75.40;;;;;;4930157;30;20055;-72
2020/12/25 07:17:23;;;;;;;12.00;11.20;;;2.30;75.50;;;;;;4929144;29;20055;-73
2020/12/25 07:19:55;;;;;;;12.38;11.48;;;2.30;75.50;;;;;;4943375;29;20067;-73
2020/12/25 07:22:27;;;;;;;11.57;10.77;;;2.20;75.50;;;;;;4929282;29;20538;-72
2020/12/25 07:25:06;;;;;;;11.18;10.38;;;2.20;75.50;;;;;;4922589;30;20036;-72
2020/12/25 07:27:38;;;;;;;11.15;10.35;;;2.30;75.80;;;;;;4927164;30;20055;-72
2020/12/25 07:30:11;;;;;;;11.20;10.30;;;2.30;75.50;;;;;;4942139;29;20829;-73
2020/12/25 07:32:43;;;;;;;11.88;10.98;;;2.30;75.70;;;;;;4931551;30;20040;-73
2020/12/25 07:35:14;;;;;;;11.65;10.85;;;2.20;75.50;;;;;;4928968;29;20519;-73
2020/12/25 07:37:52;;;;;;;11.70;10.90;;;2.20;75.80;;;;;;4927454;30;20051;-72
2020/12/25 07:40:25;;;;;;;11.93;10.93;;;2.20;76.00;;;;;;4930787;29;20051;-73
2020/12/25 07:42:56;;;;;;;11.63;10.73;;;2.30;75.90;;;;;;4931251;29;20048;-73
2020/12/25 07:45:28;;;;;;;11.30;10.50;;;2.30;76.00;;;;;;4929864;29;20055;-73
2020/12/25 07:48:02;;;;;;;11.98;11.07;;;2.30;76.00;;;;;;4930291;29;20581;-73
2020/12/25 07:50:45;;;;;;;11.32;10.52;;;2.30;76.00;;;;;;4942945;29;20063;-73
2020/12/25 07:53:18;;;;;;;17.27;15.68;;;2.30;76.20;;;;;;4912070;30;20477;-73
2020/12/25 07:55:49;;;;;;;20.70;18.58;;;2.40;76.00;;;;;;4928099;29;20043;-73
2020/12/25 07:58:20;;;;;;;13.93;12.82;;;2.40;76.00;;;;;;4928854;30;20055;-73
2020/12/25 08:00:52;;;;;;;12.57;11.65;;;2.40;75.80;;;;;;4925766;29;20048;-73
2020/12/25 08:03:24;;;;;;;11.88;10.98;;;2.40;75.90;;;;;;4925936;30;20044;-72
2020/12/25 08:05:55;;;;;;;12.32;11.43;;;2.40;76.00;;;;;;4927434;29;20422;-72
2020/12/25 08:08:28;;;;;;;12.10;11.20;;;2.40;76.10;;;;;;4927885;30;20071;-73
2020/12/25 08:11:03;;;;;;;12.70;11.70;;;2.40;76.10;;;;;;4927977;29;20109;-73
2020/12/25 08:13:36;;;;;;;12.70;11.80;;;2.40;76.00;;;;;;4926872;30;20056;-72
2020/12/25 08:16:09;;;;;;;12.55;11.55;;;2.40;76.20;;;;;;4927750;29;20059;-73
2020/12/25 08:18:56;;;;;;;12.50;11.50;;;2.40;76.50;;;;;;4925529;30;20515;-73
2020/12/25 08:21:31;;;;;;;12.20;11.30;;;2.40;76.50;;;;;;4926298;29;20056;-73
2020/12/25 08:24:04;;;;;;;12.63;11.63;;;2.40;76.20;;;;;;4928246;30;20669;-73
2020/12/25 08:26:41;;;;;;;12.15;11.25;;;2.40;76.20;;;;;;4925903;29;20056;-73
2020/12/25 08:29:12;;;;;;;12.65;11.65;;;2.40;76.20;;;;;;4926600;30;20054;-73
2020/12/25 08:31:44;;;;;;;13.18;12.15;;;2.40;76.00;;;;;;4926786;29;20434;-73
2020/12/25 08:34:21;;;;;;;21.40;18.70;;;2.40;76.00;;;;;;4926910;30;20059;-73
2020/12/25 08:36:57;;;;;;;14.52;13.23;;;2.50;76.00;;;;;;4922571;30;20054;-73
2020/12/25 08:39:30;;;;;;;12.98;11.98;;;2.50;76.10;;;;;;4940259;29;20079;-73
2020/12/25 08:42:02;;;;;;;12.40;11.27;;;2.50;76.10;;;;;;4924125;30;20051;-73
2020/12/25 08:44:33;;;;;;;11.88;10.98;;;2.50;76.10;;;;;;4925875;30;20047;-74
2020/12/25 08:47:08;;;;;;;12.48;11.48;;;2.50;75.80;;;;;;4926833;29;20052;-73
2020/12/25 08:49:40;;;;;;;12.45;11.55;;;2.60;75.90;;;;;;4928038;30;20126;-73
2020/12/25 08:52:22;;;;;;;12.27;11.38;;;2.60;76.60;;;;;;4926535;29;21600;-73
2020/12/25 08:54:55;;;;;;;11.65;10.75;;;2.60;75.90;;;;;;4925481;30;20043;-73
2020/12/25 08:57:29;;;;;;;12.50;11.60;;;2.60;75.90;;;;;;4927206;29;20097;-75
2020/12/25 09:00:09;;;;;;;12.45;11.55;;;2.60;75.90;;;;;;4927834;29;20079;-74
2020/12/25 09:02:41;;;;;;;;;;;2.60;76.50;;;;;;4928075;30;20051;-73
2020/12/25 09:05:12;;;;;;;13.18;12.18;;;2.70;75.80;;;;;;4926633;29;20316;-75
2020/12/25 09:07:44;;;;;;;13.10;12.10;;;2.70;75.80;;;;;;4940160;29;20047;-74
2020/12/25 09:10:15;;;;;;;12.52;11.63;;;2.70;75.80;;;;;;4926521;29;20051;-75
2020/12/25 09:12:47;;;;;;;12.65;11.65;;;2.70;75.60;;;;;;4925481;30;20056;-74
2020/12/25 09:15:18;;;;;;;13.27;12.27;;;2.80;75.70;;;;;;4925281;29;20093;-74
2020/12/25 09:17:50;;;;;;;14.30;13.10;;;2.80;75.50;;;;;;4925887;30;20044;-72
2020/12/25 09:20:21;;;;;;;15.88;14.48;;;2.80;75.50;;;;;;4926619;29;20075;-73
2020/12/25 09:22:52;;;;;;;14.65;13.43;;;2.80;75.70;;;;;;4928234;29;20531;-73
2020/12/25 09:25:24;;;;;;;13.00;12.00;;;2.80;75.60;;;;;;4940190;29;20043;-73
2020/12/25 09:27:55;;;;;;;12.20;11.30;;;2.80;75.20;;;;;;4941858;29;20318;-73
2020/12/25 09:30:27;;;;;;;12.50;11.60;;;2.80;75.30;;;;;;4928572;30;20063;-73
2020/12/25 09:32:58;;;;;;;13.05;11.95;;;2.80;75.30;;;;;;4915440;30;20043;-74
2020/12/25 09:35:30;;;;;;;12.57;11.57;;;2.90;75.10;;;;;;4940133;29;20051;-74
2020/12/25 09:38:01;;;;;;;12.80;11.80;;;2.80;75.20;;;;;;4927784;30;20067;-74
2020/12/25 09:40:33;;;;;;;11.90;11.00;;;2.80;75.20;;;;;;4940432;29;20887;-73
2020/12/25 09:43:04;;;;;;;12.57;11.68;;;2.90;75.10;;;;;;4924590;30;20048;-73
2020/12/25 09:45:36;;;;;;;13.40;12.20;;;2.90;75.10;;;;;;4939941;29;20064;-74
2020/12/25 09:48:07;;;;;;;12.65;11.75;;;2.90;75.20;;;;;;4940262;29;20055;-73
2020/12/25 09:50:41;;;;;;;12.48;11.48;;;2.90;75.00;;;;;;4926039;29;20112;-73
2020/12/25 09:53:12;;;;;;;12.23;11.32;;;3.00;75.10;;;;;;4925183;30;20047;-72
2020/12/25 09:55:44;;;;;;;12.50;11.50;;;3.00;74.80;;;;;;4924876;30;20821;-72
2020/12/25 09:58:16;;;;;;;12.15;11.25;;;3.00;74.90;;;;;;4923470;30;20079;-74
2020/12/25 10:00:47;;;;;;;12.45;11.45;;;3.10;74.80;;;;;;4924727;30;20113;-73
2020/12/25 10:03:19;;;;;;;12.10;11.10;;;3.00;74.40;;;;;;4926630;30;20079;-72
2020/12/25 10:05:50;;;;;;;12.38;11.30;;;3.00;74.90;;;;;;4923708;29;20773;-73
2020/12/25 10:08:22;;;;;;;12.30;11.30;;;3.10;75.10;;;;;;4937918;29;20175;-72
2020/12/25 10:10:53;;;;;;;12.23;11.32;;;3.10;74.70;;;;;;4925548;29;20051;-73
2020/12/25 10:13:25;;;;;;;11.98;11.07;;;3.10;74.80;;;;;;4926795;30;20104;-72
2020/12/25 10:15:56;;;;;;;12.75;11.75;;;3.10;74.60;;;;;;4927573;29;20059;-72
2020/12/25 10:18:27;;;;;;;13.00;12.00;;;3.10;74.60;;;;;;4926645;30;20135;-73
2020/12/25 10:21:03;;;;;;;12.15;11.25;;;3.10;74.60;;;;;;4925361;29;20047;-72
2020/12/25 10:23:34;;;;;;;11.88;10.98;;;3.00;74.70;;;;;;4925435;30;20055;-74
2020/12/25 10:26:06;;;;;;;12.38;11.48;;;3.10;74.80;;;;;;4925726;29;20594;-73
2020/12/25 10:28:40;;;;;;;12.35;11.35;;;3.10;74.80;;;;;;4928603;30;20135;-74
2020/12/25 10:31:12;;;;;;;12.73;11.77;;;3.10;74.70;;;;;;4932920;29;20051;-74
2020/12/25 10:33:44;;;;;;;12.80;11.80;;;3.10;74.30;;;;;;4945179;29;20469;-74
2020/12/25 10:36:16;;;;;;;13.02;12.02;;;3.20;74.40;;;;;;4931513;29;20067;-74
2020/12/25 10:38:47;;;;;;;12.48;11.52;;;3.20;74.50;;;;;;4931642;30;20043;-74
2020/12/25 10:41:19;;;;;;;12.57;11.57;;;3.20;74.60;;;;;;4930308;29;20040;-75
2020/12/25 10:43:50;;;;;;;12.93;11.93;;;3.20;74.30;;;;;;4929693;30;20051;-73
2020/12/25 10:46:22;;;;;;;12.52;11.50;;;3.20;74.60;;;;;;4945994;29;20674;-73
2020/12/25 10:48:53;;;;;;;12.95;11.90;;;3.30;74.50;;;;;;4931982;30;20075;-75
2020/12/25 10:51:25;;;;;;;12.38;11.43;;;3.30;74.50;;;;;;4931421;29;20048;-74
2020/12/25 10:53:56;;;;;;;12.55;11.55;;;3.40;74.30;;;;;;4933093;30;20571;-75
2020/12/25 10:56:31;;;;;;;12.85;11.85;;;3.40;74.10;;;;;;4944146;29;20047;-75
2020/12/25 10:59:17;;;;;;;12.45;11.45;;;3.40;74.00;;;;;;4932694;30;20043;-74
2020/12/25 11:01:48;;;;;;;12.85;11.75;;;3.40;73.30;;;;;;4931082;29;20419;-74
2020/12/25 11:04:19;;;;;;;13.00;11.90;;;3.30;74.10;;;;;;4932517;30;20047;-73
2020/12/25 11:06:51;;;;;;;13.70;12.50;;;3.30;74.30;;;;;;4928395;29;20051;-74
2020/12/25 11:09:22;;;;;;;13.38;12.35;;;3.30;74.30;;;;;;4930356;30;20468;-73
2020/12/25 11:11:56;;;;;;;13.13;12.13;;;3.30;74.50;;;;;;4929917;29;20089;-74
2020/12/25 11:14:28;;;;;;;13.55;12.45;;;3.20;74.50;;;;;;4928607;30;20058;-74
2020/12/25 11:17:00;;;;;;;13.60;12.52;;;3.20;74.30;;;;;;4896480;30;20098;-74
2020/12/25 11:19:31;;;;;;;12.73;11.73;;;3.10;74.70;;;;;;4945250;29;20076;-75
2020/12/25 11:22:03;;;;;;;13.48;12.18;;;3.10;74.70;;;;;;4930520;29;20322;-75
2020/12/25 11:24:34;;;;;;;12.10;11.20;;;3.10;74.60;;;;;;4943651;29;20138;-74
2020/12/25 11:27:06;;;;;;;12.05;11.15;;;3.10;74.70;;;;;;4929191;29;20059;-73
2020/12/25 11:29:37;;;;;;;12.32;11.43;;;3.10;74.80;;;;;;4929932;30;20206;-74
2020/12/25 11:32:09;;;;;;;13.10;12.10;;;3.00;74.80;;;;;;4930801;29;20048;-75
2020/12/25 11:34:40;;;;;;;12.90;11.80;;;3.00;74.70;;;;;;4944590;29;20134;-73
2020/12/25 11:37:12;;;;;;;13.32;12.32;;;3.00;74.80;;;;;;4942245;29;20052;-74
2020/12/25 11:39:43;;;;;;;12.18;11.27;;;2.90;74.70;;;;;;4930448;30;20062;-74
2020/12/25 11:42:16;;;;;;;11.52;10.63;;;3.00;74.90;;;;;;4941206;29;20095;-73
2020/12/25 11:44:47;;;;;;;12.13;11.23;;;3.00;74.90;;;;;;4940851;29;20050;-74
2020/12/25 11:47:19;;;;;;;12.45;11.55;;;3.10;74.40;;;;;;4926879;29;20464;-73
2020/12/25 11:49:53;;;;;;;14.70;13.70;;;3.10;74.20;;;;;;4928107;30;20105;-74
2020/12/25 11:52:29;;;;;;;12.00;11.10;;;3.20;73.70;;;;;;4928776;29;20091;-72
2020/12/25 11:55:00;;;;;;;12.30;11.30;;;3.20;73.80;;;;;;4938032;29;20043;-73
2020/12/25 11:57:32;;;;;;;12.30;11.40;;;3.30;73.10;;;;;;4927055;30;20091;-73
2020/12/25 12:00:04;;;;;;;12.55;11.45;;;3.30;73.30;;;;;;4929396;30;20056;-73
2020/12/25 12:02:35;;;;;;;12.20;11.30;;;3.30;72.70;;;;;;4927974;29;20810;-73
2020/12/25 12:05:07;;;;;;;12.27;11.27;;;3.30;73.20;;;;;;4926874;29;20043;-73
2020/12/25 12:07:38;;;;;;;12.80;11.80;;;3.20;72.50;;;;;;4928431;30;20097;-74
2020/12/25 12:10:10;;;;;;;12.73;11.73;;;3.20;73.60;;;;;;4941994;29;20059;-74
2020/12/25 12:12:42;;;;;;;12.43;11.50;;;3.10;73.30;;;;;;4942419;29;20114;-74
2020/12/25 12:15:13;;;;;;;12.63;11.63;;;3.10;74.10;;;;;;4926333;29;20060;-73
2020/12/25 12:17:45;;;;;;;12.75;11.77;;;3.10;73.30;;;;;;4927853;30;20154;-74
2020/12/25 12:20:17;;;;;;;12.48;11.57;;;3.00;73.40;;;;;;4940407;29;20055;-76
2020/12/25 12:22:48;;;;;;;12.30;11.30;;;3.00;73.60;;;;;;4927991;30;20093;-74
2020/12/25 12:25:20;;;;;;;12.98;11.98;;;3.00;73.80;;;;;;4927296;29;20182;-74
2020/12/25 12:27:51;;;;;;;12.98;11.98;;;3.10;74.00;;;;;;4927174;30;20056;-73
2020/12/25 12:30:23;;;;;;;12.90;11.82;;;3.10;73.80;;;;;;4926212;29;20531;-73
2020/12/25 12:32:54;;;;;;;12.65;11.70;;;3.10;73.90;;;;;;4927286;30;20419;-73
2020/12/25 12:35:26;;;;;;;13.20;12.13;;;3.00;74.10;;;;;;4940262;29;20535;-73
2020/12/25 12:37:57;;;;;;;12.45;11.55;;;3.00;74.00;;;;;;4940946;29;20040;-73
2020/12/25 12:40:29;;;;;;;12.75;11.85;;;3.00;74.00;;;;;;4928278;29;20055;-73
2020/12/25 12:43:00;;;;;;;12.68;11.68;;;2.90;74.20;;;;;;4941983;29;20056;-74
2020/12/25 12:45:32;;;;;;;12.55;11.60;;;2.90;74.30;;;;;;4925016;30;20153;-73
2020/12/25 12:48:04;;;;;;;12.65;11.63;;;2.90;74.10;;;;;;4927987;30;20043;-73
2020/12/25 12:50:35;;;;;;;12.35;11.45;;;2.90;74.10;;;;;;4925950;29;20060;-73
2020/12/25 12:53:07;;;;;;;12.02;11.10;;;2.90;74.20;;;;;;4925462;30;20039;-72
2020/12/25 12:55:39;;;;;;;12.77;11.77;;;2.90;74.30;;;;;;4927217;29;20531;-73
2020/12/25 12:58:12;;;;;;;12.73;11.73;;;2.90;74.40;;;;;;4926987;30;20114;-71
2020/12/25 13:01:00;;;;;;;12.77;11.77;;;2.90;74.30;;;;;;4927926;29;20059;-73
2020/12/25 13:03:32;;;;;;;12.85;11.85;;;2.90;74.00;;;;;;4928271;30;20048;-73
2020/12/25 13:06:03;;;;;;;12.45;11.45;;;2.90;74.20;;;;;;4940809;29;20055;-73